Diamond Valley, Utah
Current Conditions -  °F | °C
As of 7:55 PM on Sunday 23 Nov 2014 (Local Time) from KSGU Reporting Station
Clear Clear  
Wind Chill: 44°   Ceiling: Unl
Heat Index: 46°   Visibility: 10mi
Dew Point: 10°   Wind: 5mph
Humidity: 23%   Direction: 250°WSW
Pressure: 30.24"   Gusts: NA
Location:  37.1317°N, 113.795°W
Report Text: KSGU 240255Z AUTO 25004KT 10SM CLR 08/M12 A3024 RMK AO1 52003
Loading
Personal Weather Stations






























Interactive Weather Map New forecast layout! Learn more

10-Day Weather Forecast

Advertisements
Track Severe Weather on mobile